createdAt,value
2019-04-23T00:04:18.111Z,21.87
2019-04-23T00:07:32.193Z,22.37
2019-04-23T00:13:09.068Z,24.12
2019-04-23T00:16:26.383Z,29.00
2019-04-23T00:18:56.098Z,27.27
2019-04-23T00:22:13.908Z,27.00
2019-04-23T00:25:33.061Z,26.77
2019-04-23T00:28:28.051Z,25.35
2019-04-23T00:34:17.745Z,16.97
2019-04-23T00:37:26.685Z,15.83
2019-04-23T00:40:11.252Z,14.60
2019-04-23T00:43:13.067Z,14.93
2019-04-23T00:46:04.628Z,13.48
2019-04-23T00:52:04.545Z,13.20
2019-04-23T00:54:57.328Z,13.25
2019-04-23T00:57:56.122Z,13.72
2019-04-23T01:00:46.716Z,14.47
2019-04-23T01:03:44.998Z,14.10
2019-04-23T01:06:32.475Z,15.30
2019-04-23T01:09:38.924Z,14.45
2019-04-23T01:12:37.755Z,15.03
2019-04-23T01:18:38.070Z,15.45
2019-04-23T01:21:07.588Z,14.85
2019-04-23T01:24:25.880Z,15.60
2019-04-23T01:30:40.651Z,15.85
2019-04-23T01:36:33.291Z,17.25
2019-04-23T01:39:27.489Z,17.35
2019-04-23T01:42:37.346Z,15.58
2019-04-23T01:45:26.071Z,17.42
2019-04-23T01:48:20.618Z,16.48
2019-04-23T01:51:18.808Z,17.05
2019-04-23T01:54:22.840Z,15.95
2019-04-23T01:57:17.043Z,16.23
2019-04-23T02:00:16.108Z,16.77
2019-04-23T02:03:09.419Z,18.23
2019-04-23T02:09:00.482Z,19.02
2019-04-23T02:12:01.037Z,19.50
2019-04-23T02:14:57.283Z,18.60
2019-04-23T02:17:53.719Z,18.82
2019-04-23T02:20:49.835Z,19.40
2019-04-23T02:23:49.419Z,20.35
2019-04-23T02:26:46.754Z,21.57
2019-04-23T02:29:59.198Z,21.45
2019-04-23T02:32:45.780Z,22.00
2019-04-23T02:38:47.670Z,21.97
2019-04-23T02:44:38.885Z,21.30
2019-04-23T02:47:23.500Z,23.18
2019-04-23T02:50:36.737Z,24.23
2019-04-23T02:56:22.049Z,24.50
2019-04-23T02:59:19.045Z,24.70
2019-04-23T03:02:17.478Z,21.57
2019-04-23T03:05:08.258Z,21.50
2019-04-23T03:08:06.287Z,19.00
2019-04-23T03:11:00.809Z,17.90
2019-04-23T03:17:03.418Z,17.80
2019-04-23T03:20:14.771Z,17.40
2019-04-23T03:23:25.302Z,15.20
2019-04-23T03:26:25.232Z,14.53
2019-04-23T03:38:00.748Z,12.98
2019-04-23T03:40:57.144Z,12.98
2019-04-23T03:43:41.195Z,12.47
2019-04-23T03:46:39.943Z,11.43
2019-04-23T03:49:41.097Z,11.57
2019-04-23T03:58:30.633Z,11.57
2019-04-23T04:01:34.731Z,10.80
2019-04-23T04:07:21.973Z,10.53
2019-04-23T04:10:16.535Z,10.85
2019-04-23T04:13:15.114Z,11.90
2019-04-23T04:19:11.235Z,11.18
2019-04-23T04:22:16.334Z,11.35
2019-04-23T04:28:14.613Z,14.55
2019-04-23T04:34:10.913Z,12.45
2019-04-23T04:39:42.952Z,12.75
2019-04-23T04:42:33.797Z,10.18
2019-04-23T04:45:42.324Z,10.88
2019-04-23T04:48:23.183Z,10.78
2019-04-23T04:51:28.966Z,10.10
2019-04-23T04:54:21.618Z,11.75
2019-04-23T04:57:34.594Z,10.78
2019-04-23T05:00:30.021Z,10.63
2019-04-23T05:06:15.498Z,10.13
2019-04-23T05:09:09.412Z,10.38
2019-04-23T05:12:22.021Z,11.18
2019-04-23T05:15:03.205Z,12.25
2019-04-23T05:21:36.814Z,10.88
2019-04-23T05:24:08.266Z,10.00
2019-04-23T05:27:02.463Z,9.63
2019-04-23T05:30:09.855Z,9.98
2019-04-23T05:33:05.935Z,9.75
2019-04-23T05:36:12.606Z,10.70
2019-04-23T05:39:00.896Z,9.93
2019-04-23T05:41:53.627Z,9.70
2019-04-23T05:44:50.768Z,9.73
2019-04-23T05:47:44.471Z,10.88
2019-04-23T05:53:40.809Z,9.15
2019-04-23T05:56:34.926Z,9.68
2019-04-23T05:59:43.621Z,9.65
2019-04-23T06:02:32.356Z,9.00
2019-04-23T06:05:25.216Z,9.08
2019-04-23T06:08:17.723Z,8.83
2019-04-23T06:11:26.128Z,9.35
2019-04-23T06:17:11.376Z,7.62
2019-04-23T06:20:04.357Z,8.55
2019-04-23T06:23:07.699Z,8.63
2019-04-23T06:28:50.889Z,8.03
2019-04-23T06:31:52.284Z,8.80
2019-04-23T06:34:49.465Z,8.13
2019-04-23T06:38:03.371Z,7.78
2019-04-23T06:40:42.212Z,8.40
2019-04-23T06:44:09.191Z,8.93
2019-04-23T06:52:50.569Z,8.58
2019-04-23T06:58:45.733Z,9.35
2019-04-23T07:01:55.816Z,9.00
2019-04-23T07:04:41.065Z,8.98
2019-04-23T07:07:50.250Z,8.00
2019-04-23T07:10:33.257Z,7.78
2019-04-23T07:13:40.150Z,8.10
2019-04-23T07:19:44.382Z,7.95
2019-04-23T07:22:53.389Z,8.13
2019-04-23T07:25:59.831Z,8.50
2019-04-23T07:32:05.610Z,7.90
2019-04-23T07:35:30.559Z,7.25
2019-04-23T07:40:40.485Z,7.62
2019-04-23T07:43:18.415Z,7.45
2019-04-23T07:53:31.340Z,8.30
2019-04-23T08:10:35.721Z,7.60
2019-04-23T08:13:42.299Z,7.25
2019-04-23T08:16:38.364Z,7.78
2019-04-23T08:19:56.257Z,7.92
2019-04-23T08:23:01.880Z,7.78
2019-04-23T08:26:29.582Z,7.92
2019-04-23T08:29:22.185Z,7.53
2019-04-23T08:38:57.116Z,8.20
2019-04-23T08:42:00.236Z,8.60
2019-04-23T08:48:21.521Z,8.95
2019-04-23T08:55:01.548Z,9.38
2019-04-23T08:58:19.081Z,10.30
2019-04-23T09:01:33.014Z,9.83
2019-04-23T09:04:11.172Z,9.60
2019-04-23T09:07:16.902Z,10.68
2019-04-23T09:10:13.261Z,9.60
2019-04-23T09:13:26.845Z,9.45
2019-04-23T09:15:56.235Z,9.40
2019-04-23T09:18:53.063Z,10.05
2019-04-23T09:22:03.329Z,9.25
2019-04-23T09:24:47.335Z,9.38
2019-04-23T09:27:44.183Z,9.05
2019-04-23T09:30:50.989Z,8.85
2019-04-23T09:37:19.451Z,9.60
2019-04-23T09:40:41.636Z,10.65
2019-04-23T09:43:29.911Z,9.58
2019-04-23T09:49:34.883Z,9.08
2019-04-23T09:52:36.273Z,10.20
2019-04-23T09:55:35.616Z,9.40
2019-04-23T09:58:43.308Z,9.98
2019-04-23T10:04:12.626Z,9.48
2019-04-23T10:07:06.830Z,9.30
2019-04-23T10:09:53.438Z,9.73
2019-04-23T10:12:50.211Z,10.68
2019-04-23T10:15:48.118Z,9.63
2019-04-23T10:18:42.235Z,9.00
2019-04-23T10:21:39.352Z,9.30
2019-04-23T10:24:35.068Z,9.80
2019-04-23T10:27:30.219Z,10.50
2019-04-23T10:30:26.796Z,9.43
2019-04-23T10:33:21.324Z,9.30
2019-04-23T10:36:21.068Z,9.83
2019-04-23T10:39:20.748Z,10.10
2019-04-23T10:42:10.086Z,9.75
2019-04-23T10:45:44.712Z,13.20
2019-04-23T10:49:34.784Z,9.95
2019-04-23T10:55:06.060Z,10.45
2019-04-23T10:58:10.324Z,9.30
2019-04-23T11:01:04.459Z,9.10
2019-04-23T11:04:12.443Z,13.15
2019-04-23T11:07:17.087Z,10.25
2019-04-23T11:10:13.126Z,9.60
2019-04-23T11:13:14.751Z,9.65
2019-04-23T11:19:10.879Z,10.43
2019-04-23T11:22:05.873Z,10.00
2019-04-23T11:24:59.417Z,10.35
2019-04-23T11:39:43.082Z,9.48
2019-04-23T11:45:32.430Z,9.68
2019-04-23T11:54:17.742Z,10.75
2019-04-23T12:00:06.104Z,12.23
2019-04-23T12:03:19.451Z,10.20
2019-04-23T12:06:25.450Z,12.13
2019-04-23T12:12:26.187Z,11.15
2019-04-23T12:15:32.954Z,11.12
2019-04-23T12:18:27.823Z,10.58
2019-04-23T12:21:38.055Z,12.15
2019-04-23T12:24:56.820Z,11.65
2019-04-23T12:27:27.573Z,11.50
2019-04-23T12:30:25.291Z,13.75
2019-04-23T12:33:31.502Z,13.60
2019-04-23T12:36:36.963Z,13.00
2019-04-23T12:39:27.031Z,14.40
2019-04-23T12:42:43.529Z,13.55
2019-04-23T12:48:44.707Z,13.80
2019-04-23T12:51:21.315Z,13.28
2019-04-23T12:54:21.151Z,15.08
2019-04-23T12:57:14.895Z,14.58
2019-04-23T13:00:05.075Z,17.52
2019-04-23T13:02:57.215Z,12.58
2019-04-23T13:05:59.346Z,14.23
2019-04-23T13:09:16.293Z,14.63
2019-04-23T13:12:03.092Z,15.93
2019-04-23T13:15:05.277Z,15.80
2019-04-23T13:18:15.615Z,14.98
2019-04-23T13:20:42.333Z,14.70
2019-04-23T13:23:43.822Z,14.75
2019-04-23T13:26:42.277Z,16.23
2019-04-23T13:29:51.473Z,15.35
2019-04-23T13:32:46.527Z,14.65
2019-04-23T13:35:55.293Z,15.45
2019-04-23T13:38:38.419Z,15.93
2019-04-23T13:41:34.866Z,16.40
2019-04-23T13:44:25.527Z,17.15
2019-04-23T13:47:50.811Z,15.32
2019-04-23T13:50:35.586Z,15.78
2019-04-23T13:53:28.760Z,16.15
2019-04-23T13:56:39.542Z,16.77
2019-04-23T14:02:24.910Z,17.70
2019-04-23T14:05:33.104Z,16.52
2019-04-23T14:08:41.359Z,16.25
2019-04-23T14:14:34.502Z,17.55
2019-04-23T14:20:21.366Z,19.75
2019-04-23T14:29:04.154Z,17.82
2019-04-23T14:32:08.888Z,20.12
2019-04-23T14:35:11.495Z,20.02
2019-04-23T14:38:15.780Z,20.35
2019-04-23T14:41:06.053Z,19.73
2019-04-23T14:46:50.127Z,22.25
2019-04-23T14:50:12.909Z,21.73
2019-04-23T14:52:55.130Z,18.77
2019-04-23T14:56:44.969Z,18.48
2019-04-23T14:58:56.929Z,19.62
2019-04-23T15:04:28.917Z,19.42
2019-04-23T15:07:28.417Z,18.60
2019-04-23T15:13:18.742Z,17.98
2019-04-23T15:16:17.392Z,17.07
2019-04-23T15:19:24.790Z,19.20
2019-04-23T15:25:21.562Z,26.77
2019-04-23T15:31:02.394Z,19.80
2019-04-23T15:34:00.544Z,21.40
2019-04-23T15:39:50.936Z,18.10
2019-04-23T15:42:43.912Z,18.42
2019-04-23T15:45:40.974Z,19.20
2019-04-23T15:48:32.217Z,21.57
2019-04-23T15:54:25.390Z,18.17
2019-04-23T15:57:28.445Z,18.15
2019-04-23T16:00:16.042Z,17.40
2019-04-23T16:02:41.494Z,20.50
2019-04-23T16:05:37.190Z,23.75
2019-04-23T16:15:07.857Z,18.50
2019-04-23T16:18:04.057Z,19.62
2019-04-23T16:21:01.002Z,18.25
2019-04-23T16:23:59.376Z,18.75
2019-04-23T16:26:55.396Z,18.05
2019-04-23T16:29:54.161Z,18.20
2019-04-23T16:33:02.448Z,19.77
2019-04-23T16:35:58.842Z,17.00
2019-04-23T16:38:51.981Z,17.15
2019-04-23T16:47:57.955Z,21.20
2019-04-23T16:51:07.854Z,16.60
2019-04-23T16:53:37.985Z,16.82
2019-04-23T16:56:55.916Z,17.55
2019-04-23T17:02:28.475Z,16.87
2019-04-23T17:05:24.974Z,19.73
2019-04-23T17:14:16.358Z,16.90
2019-04-23T17:17:06.556Z,18.20
2019-04-23T17:20:08.902Z,19.12
2019-04-23T17:23:05.236Z,17.37
2019-04-23T17:26:04.241Z,16.07
2019-04-23T17:29:00.054Z,17.52
2019-04-23T17:31:44.820Z,17.42
2019-04-23T17:35:05.141Z,19.77
2019-04-23T17:38:00.504Z,19.67
2019-04-23T17:41:06.598Z,16.90
2019-04-23T17:44:09.543Z,18.82
2019-04-23T17:46:58.237Z,17.00
2019-04-23T17:52:59.168Z,16.60
2019-04-23T17:56:06.129Z,16.80
2019-04-23T17:58:41.131Z,15.58
2019-04-23T18:01:47.351Z,15.03
2019-04-23T18:04:50.541Z,15.80
2019-04-23T18:16:46.286Z,16.20
2019-04-23T18:19:17.951Z,17.07
2019-04-23T18:22:25.732Z,16.30
2019-04-23T18:25:30.782Z,16.30
2019-04-23T18:28:30.192Z,15.50
2019-04-23T18:31:48.217Z,15.90
2019-04-23T18:34:47.027Z,16.23
2019-04-23T18:40:19.764Z,15.23
2019-04-23T18:43:26.505Z,15.10
2019-04-23T18:46:29.591Z,15.58
2019-04-23T18:49:10.424Z,17.73
2019-04-23T18:52:20.968Z,15.13
2019-04-23T18:55:04.064Z,14.20
2019-04-23T18:57:57.280Z,14.75
2019-04-23T19:04:33.700Z,15.00
2019-04-23T19:07:43.001Z,15.15
2019-04-23T19:10:49.160Z,17.00
2019-04-23T19:13:40.109Z,14.78
2019-04-23T19:16:50.607Z,15.05
2019-04-23T19:19:35.059Z,15.45
2019-04-23T19:28:34.622Z,15.20
2019-04-23T19:37:49.578Z,15.88
2019-04-23T19:40:49.327Z,13.00
2019-04-23T19:43:41.793Z,14.38
2019-04-23T19:46:46.131Z,14.80
2019-04-23T19:49:26.862Z,15.15
2019-04-23T19:52:21.209Z,12.58
2019-04-23T19:55:21.454Z,13.35
2019-04-23T19:58:16.194Z,12.30
2019-04-23T20:01:15.163Z,12.78
2019-04-23T20:03:56.262Z,12.35
2019-04-23T20:07:12.959Z,12.13
2019-04-23T20:09:51.616Z,11.68
2019-04-23T20:16:05.292Z,11.55
2019-04-23T20:18:52.392Z,14.87
2019-04-23T20:21:45.073Z,12.23
2019-04-23T20:24:47.215Z,13.13
2019-04-23T20:27:33.732Z,11.97
2019-04-23T20:36:49.149Z,12.37
2019-04-23T20:39:52.458Z,12.63
2019-04-23T20:42:40.788Z,12.45
2019-04-23T20:45:46.736Z,11.78
2019-04-23T20:48:40.807Z,12.33
2019-04-23T20:51:33.995Z,11.28
2019-04-23T20:54:35.211Z,10.45
2019-04-23T20:57:43.806Z,11.38
2019-04-23T21:00:33.989Z,11.22
2019-04-23T21:03:39.067Z,11.78
2019-04-23T21:06:28.422Z,11.75
2019-04-23T21:09:33.492Z,12.25
2019-04-23T21:12:35.606Z,12.47
2019-04-23T21:15:32.816Z,12.93
2019-04-23T21:20:56.043Z,13.43
2019-04-23T21:23:53.623Z,13.48
2019-04-23T21:26:59.886Z,13.18
2019-04-23T21:32:56.137Z,13.45
2019-04-23T21:39:26.920Z,13.32
2019-04-23T21:42:40.760Z,13.38
2019-04-23T21:45:38.143Z,13.32
2019-04-23T21:48:43.494Z,13.43
2019-04-23T21:54:13.240Z,13.95
2019-04-23T21:57:14.678Z,13.65
2019-04-23T22:00:08.046Z,13.75
2019-04-23T22:03:08.425Z,14.23
2019-04-23T22:06:04.462Z,13.90
2019-04-23T22:09:04.348Z,15.25
2019-04-23T22:14:50.729Z,15.23
2019-04-23T22:17:44.655Z,14.07
2019-04-23T22:20:51.329Z,14.03
2019-04-23T22:23:52.623Z,14.60
2019-04-23T22:26:35.365Z,14.47
2019-04-23T22:32:51.221Z,14.60
2019-04-23T22:35:31.860Z,14.43
2019-04-23T22:38:26.447Z,13.75
2019-04-23T22:41:32.032Z,15.35
2019-04-23T22:56:03.199Z,15.00
2019-04-23T22:59:21.899Z,14.35
2019-04-23T23:01:59.191Z,14.55
2019-04-23T23:05:03.306Z,13.88
2019-04-23T23:07:59.417Z,14.00
2019-04-23T23:10:44.263Z,13.75
2019-04-23T23:13:56.593Z,13.25
2019-04-23T23:16:28.197Z,14.15
2019-04-23T23:19:34.989Z,13.55
2019-04-23T23:22:20.145Z,14.73
2019-04-23T23:28:20.091Z,14.43
2019-04-23T23:31:13.813Z,13.88
2019-04-23T23:37:09.000Z,13.75
2019-04-23T23:40:04.732Z,14.23
2019-04-23T23:43:08.734Z,13.95
2019-04-23T23:45:57.392Z,16.05
2019-04-23T23:48:41.949Z,13.83
2019-04-23T23:51:43.501Z,13.32
2019-04-23T23:54:57.819Z,13.88
2019-04-23T23:57:30.471Z,14.85
